Time;durP1;ratioP1;P1;durP2;ratioP2;P2;SDS_P1;SDS_P2;PMS_P1;PMS_P2;Temp;Humidity;BMP_temperature;BMP_pressure;BME280_temperature;BME280_humidity;BME280_pressure;Samples;Min_cycle;Max_cycle;Signal;HPM_P1;HPM_P2
2020/12/21 00:00:09;;;;;;;12.35;6.72;;;5.90;99.90;;;;;;4978130;28;20034;-70
2020/12/21 00:02:37;;;;;;;11.75;6.20;;;5.90;99.90;;;;;;4993267;28;20073;-70
2020/12/21 00:05:06;;;;;;;11.85;6.18;;;5.80;99.90;;;;;;4978005;28;20039;-70
2020/12/21 00:07:37;;;;;;;15.75;7.03;;;5.80;99.90;;;;;;4978040;28;20023;-69
2020/12/21 00:10:05;;;;;;;12.88;6.25;;;5.80;99.90;;;;;;4977359;28;20200;-70
2020/12/21 00:12:33;;;;;;;13.35;6.07;;;5.80;99.90;;;;;;4978270;28;20023;-70
2020/12/21 00:15:00;;;;;;;12.70;5.85;;;5.80;99.90;;;;;;4977797;28;20101;-69
2020/12/21 00:17:28;;;;;;;13.40;5.13;;;5.80;99.90;;;;;;4977968;28;20035;-69
2020/12/21 00:19:55;;;;;;;13.77;5.57;;;5.80;99.90;;;;;;4977904;28;20046;-70
2020/12/21 00:22:23;;;;;;;11.23;6.03;;;5.80;99.90;;;;;;4978553;28;20438;-70
2020/12/21 00:24:51;;;;;;;10.27;5.53;;;5.90;99.90;;;;;;4976890;28;20026;-70
2020/12/21 00:27:18;;;;;;;11.48;5.40;;;5.90;99.90;;;;;;4977790;28;20025;-70
2020/12/21 00:29:45;;;;;;;11.25;5.93;;;5.90;99.90;;;;;;4976978;28;20078;-70
2020/12/21 00:32:13;;;;;;;10.45;5.50;;;5.90;99.90;;;;;;4977786;28;20029;-69
2020/12/21 00:34:40;;;;;;;17.15;5.43;;;5.90;99.90;;;;;;4977779;28;20052;-70
2020/12/21 00:37:09;;;;;;;9.05;4.07;;;5.90;99.90;;;;;;4977709;28;20026;-70
2020/12/21 00:39:36;;;;;;;13.98;4.60;;;5.90;99.90;;;;;;4978230;28;20029;-70
2020/12/21 00:42:04;;;;;;;10.20;4.07;;;5.90;99.90;;;;;;4978333;28;20054;-70
2020/12/21 00:44:32;;;;;;;11.95;4.97;;;6.00;99.90;;;;;;4977502;28;20027;-70
2020/12/21 00:46:59;;;;;;;12.45;5.18;;;6.00;99.90;;;;;;4992776;28;20067;-70
2020/12/21 00:49:27;;;;;;;11.88;5.10;;;6.10;99.90;;;;;;4977567;28;20030;-69
2020/12/21 00:51:54;;;;;;;9.38;5.45;;;6.00;99.90;;;;;;4992891;28;20332;-70
2020/12/21 00:54:22;;;;;;;13.13;5.10;;;6.00;99.90;;;;;;4977521;28;20033;-70
2020/12/21 00:56:49;;;;;;;11.98;5.45;;;6.00;99.90;;;;;;4977556;28;20034;-69
2020/12/21 00:59:17;;;;;;;11.57;6.00;;;5.90;99.90;;;;;;4977415;28;20055;-70
2020/12/21 01:01:45;;;;;;;11.32;5.53;;;5.90;99.90;;;;;;4977671;28;20054;-69
2020/12/21 01:04:12;;;;;;;9.85;5.60;;;5.80;99.90;;;;;;4977090;28;20037;-70
2020/12/21 01:06:40;;;;;;;10.25;5.63;;;5.80;99.90;;;;;;4977488;28;20037;-69
2020/12/21 01:09:10;;;;;;;13.27;6.53;;;5.70;99.90;;;;;;4977432;28;20423;-69
2020/12/21 01:11:39;;;;;;;11.07;5.88;;;5.70;99.90;;;;;;4978089;28;20054;-69
2020/12/21 01:14:06;;;;;;;10.75;5.43;;;5.70;99.90;;;;;;4977290;28;20057;-69
2020/12/21 01:16:33;;;;;;;11.43;6.68;;;5.70;99.90;;;;;;4977933;28;20103;-69
2020/12/21 01:19:01;;;;;;;13.02;6.82;;;5.70;99.90;;;;;;4977301;28;20034;-70
2020/12/21 01:21:31;;;;;;;10.77;6.18;;;5.70;99.90;;;;;;4992670;28;20031;-70
2020/12/21 01:24:00;;;;;;;11.90;6.10;;;5.70;99.90;;;;;;4977159;28;20123;-69
2020/12/21 01:26:28;;;;;;;14.27;5.63;;;5.70;99.90;;;;;;4977230;28;20033;-69
2020/12/21 01:28:56;;;;;;;18.10;5.65;;;5.70;99.90;;;;;;4980092;28;20026;-70
2020/12/21 01:31:24;;;;;;;12.57;5.32;;;5.70;99.90;;;;;;4980914;28;20027;-69
2020/12/21 01:33:52;;;;;;;13.32;6.43;;;5.70;99.90;;;;;;4980873;28;20019;-70
2020/12/21 01:36:20;;;;;;;15.73;5.63;;;5.70;99.90;;;;;;4979973;28;20022;-70
2020/12/21 01:38:48;;;;;;;10.75;5.82;;;5.60;99.90;;;;;;4995990;28;20030;-69
2020/12/21 01:41:15;;;;;;;13.60;5.85;;;5.60;99.90;;;;;;4980757;28;20058;-70
2020/12/21 01:43:43;;;;;;;14.02;6.70;;;5.50;99.90;;;;;;4995780;28;20053;-69
2020/12/21 01:46:15;;;;;;;12.45;6.28;;;5.40;99.90;;;;;;4980724;28;20018;-69
2020/12/21 01:48:45;;;;;;;10.95;5.88;;;5.40;99.90;;;;;;4980626;28;20085;-69
2020/12/21 01:51:22;;;;;;;12.95;6.13;;;5.30;99.90;;;;;;4980881;28;20055;-70
2020/12/21 01:53:52;;;;;;;12.52;6.93;;;5.30;99.90;;;;;;4980538;28;20022;-69
2020/12/21 01:56:20;;;;;;;13.85;7.15;;;5.20;99.90;;;;;;4980729;28;20026;-69
2020/12/21 01:58:49;;;;;;;15.48;6.38;;;5.20;99.90;;;;;;4980388;28;20063;-69
2020/12/21 02:01:18;;;;;;;12.05;6.65;;;5.20;99.90;;;;;;4980318;28;20332;-70
2020/12/21 02:03:46;;;;;;;15.00;6.53;;;5.10;99.90;;;;;;4980251;28;20027;-70
2020/12/21 02:06:13;;;;;;;13.95;7.68;;;5.10;99.90;;;;;;4980033;28;20447;-70
2020/12/21 02:08:40;;;;;;;15.07;6.78;;;5.10;99.90;;;;;;4980267;28;20049;-70
2020/12/21 02:11:08;;;;;;;14.32;7.05;;;5.10;99.90;;;;;;4979636;28;20311;-70
2020/12/21 02:13:35;;;;;;;14.40;7.32;;;5.20;99.90;;;;;;4980409;28;20058;-70
2020/12/21 02:16:04;;;;;;;13.75;7.40;;;5.20;99.90;;;;;;4980138;28;20027;-70
2020/12/21 02:18:31;;;;;;;13.88;6.60;;;5.30;99.90;;;;;;4980089;28;20111;-70
2020/12/21 02:20:59;;;;;;;17.20;6.82;;;5.30;99.90;;;;;;4980503;28;20027;-70
2020/12/21 02:23:27;;;;;;;17.17;7.53;;;5.30;99.90;;;;;;4979865;28;20312;-70
2020/12/21 02:25:54;;;;;;;13.13;6.07;;;5.40;99.90;;;;;;4980296;28;20018;-70
2020/12/21 02:28:22;;;;;;;13.35;6.55;;;5.40;99.90;;;;;;4979481;28;20026;-70
2020/12/21 02:30:49;;;;;;;17.65;7.55;;;5.40;99.90;;;;;;4979964;28;20033;-70
2020/12/21 02:33:17;;;;;;;17.42;6.65;;;5.40;99.90;;;;;;4980072;28;20117;-70
2020/12/21 02:35:44;;;;;;;15.73;7.32;;;5.50;99.90;;;;;;4979846;28;20114;-70
2020/12/21 02:38:12;;;;;;;15.07;7.05;;;5.40;99.90;;;;;;4979123;28;20027;-70
2020/12/21 02:40:41;;;;;;;14.70;6.82;;;5.50;99.90;;;;;;4979208;28;20038;-69
2020/12/21 02:43:09;;;;;;;16.88;7.70;;;5.50;99.90;;;;;;4979440;28;20026;-70
2020/12/21 02:45:36;;;;;;;20.65;8.05;;;5.50;99.90;;;;;;4980134;28;20022;-70
2020/12/21 02:48:04;;;;;;;16.40;6.93;;;5.50;99.90;;;;;;4980054;28;20094;-70
2020/12/21 02:50:31;;;;;;;14.10;7.03;;;5.50;99.90;;;;;;4979710;28;20023;-70
2020/12/21 02:52:59;;;;;;;17.58;7.82;;;5.60;99.90;;;;;;4995433;28;20034;-70
2020/12/21 02:55:26;;;;;;;16.30;6.65;;;5.60;99.90;;;;;;4978753;28;20070;-69
2020/12/21 02:57:54;;;;;;;13.57;7.25;;;5.60;99.90;;;;;;4994577;28;20029;-69
2020/12/21 03:00:22;;;;;;;12.10;7.07;;;5.60;99.90;;;;;;4979408;28;20019;-69
2020/12/21 03:02:50;;;;;;;15.07;7.10;;;5.60;99.90;;;;;;4979310;28;20019;-70
2020/12/21 03:05:17;;;;;;;13.23;7.95;;;5.60;99.90;;;;;;4979052;28;20051;-70
2020/12/21 03:07:45;;;;;;;13.18;7.57;;;5.60;99.90;;;;;;4979439;28;20331;-70
2020/12/21 03:10:13;;;;;;;16.27;7.13;;;5.60;99.90;;;;;;4979624;28;20018;-69
2020/12/21 03:12:40;;;;;;;17.02;7.18;;;5.60;99.90;;;;;;4979129;28;20031;-70
2020/12/21 03:15:08;;;;;;;19.80;7.88;;;5.60;99.90;;;;;;4977994;28;20082;-69
2020/12/21 03:17:35;;;;;;;14.60;6.30;;;5.50;99.90;;;;;;4978577;28;20106;-70
2020/12/21 03:20:04;;;;;;;14.45;8.35;;;5.50;99.90;;;;;;4978936;28;20328;-69
2020/12/21 03:22:31;;;;;;;19.83;8.18;;;5.50;99.90;;;;;;4978854;28;20447;-69
2020/12/21 03:25:00;;;;;;;16.10;8.13;;;5.50;99.90;;;;;;4979144;28;20035;-69
2020/12/21 03:27:28;;;;;;;17.00;8.18;;;5.50;99.90;;;;;;4978804;28;20058;-70
2020/12/21 03:29:56;;;;;;;16.95;7.47;;;5.50;99.90;;;;;;4978740;28;20019;-70
2020/12/21 03:32:24;;;;;;;16.00;8.45;;;5.50;99.90;;;;;;4979237;28;20482;-70
2020/12/21 03:34:55;;;;;;;20.08;8.48;;;5.50;99.90;;;;;;4979363;28;20038;-70
2020/12/21 03:37:22;;;;;;;14.25;8.30;;;5.40;99.90;;;;;;4978607;28;20030;-70
2020/12/21 03:39:50;;;;;;;17.83;8.57;;;5.50;99.90;;;;;;4978895;28;20418;-70
2020/12/21 03:42:17;;;;;;;14.20;7.03;;;5.50;99.90;;;;;;4978067;28;20130;-70
2020/12/21 03:44:45;;;;;;;16.17;7.65;;;5.50;99.90;;;;;;4978519;28;20027;-70
2020/12/21 03:47:12;;;;;;;17.85;7.22;;;5.50;99.90;;;;;;4978980;28;20102;-70
2020/12/21 03:49:40;;;;;;;15.88;6.50;;;5.50;99.90;;;;;;4993618;28;20023;-70
2020/12/21 03:52:08;;;;;;;14.48;7.05;;;5.50;99.90;;;;;;4978066;28;20018;-70
2020/12/21 03:54:37;;;;;;;12.75;7.15;;;5.60;99.90;;;;;;4978491;28;20034;-70
2020/12/21 03:57:05;;;;;;;16.13;6.68;;;5.60;99.90;;;;;;4993416;28;20027;-70
2020/12/21 03:59:35;;;;;;;12.35;6.47;;;5.60;99.90;;;;;;4978194;28;20031;-70
2020/12/21 04:02:03;;;;;;;15.80;6.57;;;5.60;99.90;;;;;;4978785;28;20030;-70
2020/12/21 04:04:31;;;;;;;14.77;6.85;;;5.50;99.90;;;;;;4977738;28;20027;-70
2020/12/21 04:06:59;;;;;;;17.02;6.75;;;5.50;99.90;;;;;;4977825;28;20023;-70
2020/12/21 04:09:27;;;;;;;14.52;7.32;;;5.50;99.90;;;;;;4978061;28;20041;-69
2020/12/21 04:11:54;;;;;;;13.50;7.10;;;5.50;99.90;;;;;;4978392;28;20027;-70
2020/12/21 04:14:22;;;;;;;16.83;9.18;;;5.50;99.90;;;;;;4977929;28;20089;-70
2020/12/21 04:16:50;;;;;;;15.48;6.80;;;5.50;99.90;;;;;;4978139;28;20064;-69
2020/12/21 04:19:17;;;;;;;18.23;7.13;;;5.50;99.90;;;;;;4977892;28;20110;-70
2020/12/21 04:21:45;;;;;;;17.55;7.15;;;5.50;99.90;;;;;;4978501;28;20475;-70
2020/12/21 04:24:13;;;;;;;15.63;6.38;;;5.50;99.90;;;;;;4978331;28;20033;-70
2020/12/21 04:26:40;;;;;;;13.70;7.30;;;5.40;99.90;;;;;;4978421;28;20027;-70
2020/12/21 04:29:08;;;;;;;17.25;7.63;;;5.40;99.90;;;;;;4992940;28;20023;-70
2020/12/21 04:31:36;;;;;;;15.93;7.47;;;5.40;99.90;;;;;;4978332;28;20054;-70
2020/12/21 04:34:03;;;;;;;16.67;7.60;;;5.30;99.90;;;;;;4977811;28;20305;-70
2020/12/21 04:36:31;;;;;;;15.32;7.55;;;5.30;99.90;;;;;;4977986;28;20418;-70
2020/12/21 04:38:58;;;;;;;17.15;7.53;;;5.20;99.90;;;;;;4978271;28;20035;-70
2020/12/21 04:41:25;;;;;;;16.10;7.32;;;5.20;99.90;;;;;;4978373;28;20369;-69
2020/12/21 04:43:56;;;;;;;16.52;8.20;;;5.10;99.90;;;;;;4977604;28;20027;-70
2020/12/21 04:46:24;;;;;;;20.40;8.38;;;5.10;99.90;;;;;;4978205;28;20416;-70
2020/12/21 04:48:52;;;;;;;17.92;7.72;;;5.10;99.90;;;;;;4992792;28;20077;-70
2020/12/21 04:51:20;;;;;;;16.45;7.68;;;5.10;99.90;;;;;;4977801;28;20021;-70
2020/12/21 04:53:50;;;;;;;15.95;8.35;;;5.10;99.90;;;;;;4977826;28;20026;-69
2020/12/21 04:56:21;;;;;;;21.08;8.55;;;5.00;99.90;;;;;;4977532;28;20026;-69
2020/12/21 04:58:48;;;;;;;20.23;8.60;;;5.00;99.90;;;;;;4976820;28;20375;-70
2020/12/21 05:01:16;;;;;;;18.83;7.80;;;4.90;99.90;;;;;;4992725;28;20054;-70
2020/12/21 05:03:50;;;;;;;17.23;8.27;;;4.90;99.90;;;;;;4980238;28;20031;-70
2020/12/21 05:06:18;;;;;;;21.88;7.68;;;4.90;99.90;;;;;;4981143;28;20057;-69
2020/12/21 05:08:46;;;;;;;15.85;7.47;;;4.90;99.90;;;;;;4981401;28;20026;-70
2020/12/21 05:11:14;;;;;;;16.63;7.15;;;4.80;99.90;;;;;;4981428;28;20034;-69
2020/12/21 05:13:41;;;;;;;17.67;8.30;;;4.80;99.90;;;;;;4981281;28;20046;-69
2020/12/21 05:16:08;;;;;;;18.98;7.13;;;4.80;99.90;;;;;;4980793;28;20110;-70
2020/12/21 05:18:36;;;;;;;20.30;7.75;;;4.80;99.90;;;;;;4981427;28;20110;-69
2020/12/21 05:21:06;;;;;;;15.00;7.32;;;4.80;99.90;;;;;;4996550;28;20026;-70
2020/12/21 05:23:37;;;;;;;14.90;7.50;;;4.80;99.90;;;;;;4981013;28;20088;-69
2020/12/21 05:26:11;;;;;;;18.13;8.35;;;4.70;99.90;;;;;;4980688;28;20022;-69
2020/12/21 05:28:40;;;;;;;18.98;8.93;;;4.70;99.90;;;;;;4981277;28;20019;-70
2020/12/21 05:31:11;;;;;;;25.25;10.15;;;4.70;99.90;;;;;;4981074;28;20030;-70
2020/12/21 05:33:42;;;;;;;27.23;11.88;;;4.70;99.90;;;;;;4980899;28;20023;-70
2020/12/21 05:36:11;;;;;;;23.80;10.38;;;4.70;99.90;;;;;;4980910;28;20102;-69
2020/12/21 05:38:41;;;;;;;23.08;10.43;;;4.70;99.90;;;;;;4996004;28;20046;-69
2020/12/21 05:41:16;;;;;;;18.83;9.32;;;4.70;99.90;;;;;;4980775;28;20030;-70
2020/12/21 05:43:45;;;;;;;16.10;8.88;;;4.70;99.90;;;;;;4981210;28;20026;-70
2020/12/21 05:46:17;;;;;;;21.67;8.88;;;4.60;99.90;;;;;;4980589;28;20105;-70
2020/12/21 05:48:45;;;;;;;30.25;8.65;;;4.60;99.90;;;;;;4980898;28;20041;-70
2020/12/21 05:51:32;;;;;;;17.15;7.75;;;4.60;99.90;;;;;;4995769;28;20098;-70
2020/12/21 05:54:05;;;;;;;15.30;7.78;;;4.60;99.90;;;;;;4980589;28;20101;-70
2020/12/21 05:56:34;;;;;;;16.60;7.95;;;4.50;99.90;;;;;;4996042;28;20029;-70
2020/12/21 05:59:01;;;;;;;25.42;9.73;;;4.50;99.90;;;;;;4995676;28;20030;-70
2020/12/21 06:01:29;;;;;;;20.58;8.45;;;4.50;99.90;;;;;;4980387;28;20039;-70
2020/12/21 06:04:01;;;;;;;23.60;9.68;;;4.50;99.90;;;;;;4996368;28;20027;-70
2020/12/21 06:06:30;;;;;;;18.30;7.75;;;4.40;99.90;;;;;;4980109;28;20042;-70
2020/12/21 06:09:03;;;;;;;18.13;7.93;;;4.40;99.90;;;;;;4981106;28;20339;-70
2020/12/21 06:11:35;;;;;;;14.98;7.78;;;4.50;99.90;;;;;;4995417;28;20122;-69
2020/12/21 06:14:14;;;;;;;15.60;7.30;;;4.50;99.90;;;;;;4980336;28;20038;-69
2020/12/21 06:16:42;;;;;;;18.48;7.80;;;4.50;99.90;;;;;;4980279;28;20034;-69
2020/12/21 06:19:11;;;;;;;24.52;8.60;;;4.60;99.90;;;;;;4980103;28;20082;-69
2020/12/21 06:21:53;;;;;;;14.02;6.90;;;4.50;99.90;;;;;;4995201;28;20038;-69
2020/12/21 06:24:23;;;;;;;15.45;6.90;;;4.60;99.90;;;;;;4978842;28;20046;-69
2020/12/21 06:26:52;;;;;;;14.30;7.68;;;4.50;99.90;;;;;;4980165;28;20066;-69
2020/12/21 06:29:22;;;;;;;13.10;7.22;;;4.50;99.90;;;;;;4994990;28;20018;-69
2020/12/21 06:32:02;;;;;;;20.75;7.63;;;4.50;99.90;;;;;;4979831;28;20023;-68
2020/12/21 06:34:31;;;;;;;13.18;6.55;;;4.40;99.90;;;;;;4979761;28;20031;-68
2020/12/21 06:37:07;;;;;;;15.55;7.70;;;4.40;99.90;;;;;;4995407;28;20443;-70
2020/12/21 06:39:35;;;;;;;16.80;7.50;;;4.40;99.90;;;;;;4980339;28;20031;-71
2020/12/21 06:42:09;;;;;;;17.55;7.30;;;4.30;99.90;;;;;;4979674;28;20056;-70
2020/12/21 06:44:42;;;;;;;21.50;8.07;;;4.30;99.90;;;;;;4980194;28;20097;-70
2020/12/21 06:47:13;;;;;;;20.60;8.32;;;4.30;99.90;;;;;;4979510;28;20098;-70
2020/12/21 06:49:41;;;;;;;17.20;7.40;;;4.20;99.90;;;;;;4979459;28;20098;-71
2020/12/21 06:52:08;;;;;;;14.40;6.75;;;4.30;99.90;;;;;;4979992;28;20074;-71
2020/12/21 06:54:38;;;;;;;17.40;7.40;;;4.20;99.90;;;;;;4979931;28;20034;-72
2020/12/21 06:57:06;;;;;;;22.17;9.02;;;4.20;99.90;;;;;;4978816;28;20054;-72
2020/12/21 06:59:33;;;;;;;20.42;8.77;;;4.20;99.90;;;;;;4979635;28;20077;-72
2020/12/21 07:02:01;;;;;;;24.30;8.88;;;4.10;99.90;;;;;;4979248;28;20076;-72
2020/12/21 07:04:30;;;;;;;15.77;7.80;;;4.10;99.90;;;;;;4979217;28;20027;-73
2020/12/21 07:07:04;;;;;;;20.75;8.73;;;4.00;99.90;;;;;;4979788;28;20113;-72
2020/12/21 07:09:38;;;;;;;20.23;9.55;;;4.00;99.90;;;;;;4979221;28;20034;-68
2020/12/21 07:12:10;;;;;;;22.35;8.55;;;3.90;99.90;;;;;;4980238;28;20031;-69
2020/12/21 07:14:41;;;;;;;24.27;9.38;;;3.90;99.90;;;;;;4979164;28;20085;-71
2020/12/21 07:17:17;;;;;;;25.20;11.75;;;3.90;99.90;;;;;;4978998;28;20034;-71
2020/12/21 07:19:44;;;;;;;21.90;9.07;;;3.90;99.90;;;;;;4979086;28;20026;-71
2020/12/21 07:22:13;;;;;;;26.42;10.70;;;3.90;99.90;;;;;;4979240;28;20105;-70
2020/12/21 07:24:42;;;;;;;23.30;9.35;;;3.90;99.90;;;;;;4979154;28;20092;-70
2020/12/21 07:27:09;;;;;;;29.40;10.95;;;3.90;99.90;;;;;;4977902;28;20297;-71
2020/12/21 07:29:38;;;;;;;25.23;10.00;;;3.90;99.90;;;;;;4978984;28;20041;-68
2020/12/21 07:32:06;;;;;;;21.27;7.85;;;3.90;99.90;;;;;;4978818;28;20027;-69
2020/12/21 07:34:35;;;;;;;22.77;8.68;;;4.00;99.90;;;;;;4979349;28;20106;-69
2020/12/21 07:37:10;;;;;;;18.80;8.77;;;4.00;99.90;;;;;;4978711;28;20062;-70
2020/12/21 07:39:38;;;;;;;26.00;9.98;;;3.90;99.90;;;;;;4978864;28;20023;-69
2020/12/21 07:42:14;;;;;;;27.52;8.55;;;4.00;99.90;;;;;;4978632;28;20030;-70
2020/12/21 07:44:53;;;;;;;17.27;8.43;;;4.00;99.90;;;;;;4978479;28;20027;-72
2020/12/21 07:47:30;;;;;;;19.52;7.07;;;4.00;99.90;;;;;;4978623;28;20119;-69
2020/12/21 07:49:59;;;;;;;18.55;7.05;;;4.00;99.90;;;;;;4978502;28;20023;-69
2020/12/21 07:52:27;;;;;;;14.52;7.28;;;4.00;99.90;;;;;;4978394;28;20026;-69
2020/12/21 07:55:02;;;;;;;19.40;6.50;;;4.10;99.90;;;;;;4993503;28;20026;-68
2020/12/21 07:57:33;;;;;;;22.23;7.35;;;4.10;99.90;;;;;;4978296;28;20042;-69
2020/12/21 08:00:00;;;;;;;17.25;6.38;;;4.10;99.90;;;;;;4978327;28;20423;-69
2020/12/21 08:02:29;;;;;;;13.80;6.40;;;4.10;99.90;;;;;;4978264;28;20023;-69
2020/12/21 08:04:57;;;;;;;16.58;6.80;;;4.20;99.90;;;;;;4977966;28;20043;-69
2020/12/21 08:07:28;;;;;;;20.67;8.40;;;4.20;99.90;;;;;;4977177;28;20146;-69
2020/12/21 08:09:56;;;;;;;22.40;7.82;;;4.20;99.90;;;;;;4978290;28;20449;-69
2020/12/21 08:12:30;;;;;;;13.27;7.53;;;4.30;99.90;;;;;;4978635;28;20407;-69
2020/12/21 08:15:03;;;;;;;22.95;7.47;;;4.40;99.90;;;;;;4978540;28;20106;-69
2020/12/21 08:17:31;;;;;;;16.15;5.90;;;4.40;99.90;;;;;;4993175;28;20031;-69
2020/12/21 08:20:06;;;;;;;12.13;5.90;;;4.50;99.90;;;;;;4978457;28;20034;-69
2020/12/21 08:22:37;;;;;;;12.65;5.88;;;4.50;99.90;;;;;;4978209;28;20026;-69
2020/12/21 08:25:10;;;;;;;17.73;6.65;;;4.50;99.90;;;;;;4978375;28;20407;-69
2020/12/21 08:27:51;;;;;;;17.38;6.70;;;4.60;99.90;;;;;;4977869;28;20058;-69
2020/12/21 08:30:24;;;;;;;16.67;6.75;;;4.60;99.90;;;;;;4977900;28;20102;-69
2020/12/21 08:32:52;;;;;;;10.52;5.25;;;4.60;99.90;;;;;;4977826;28;20019;-69
2020/12/21 08:35:28;;;;;;;14.05;6.20;;;4.60;99.90;;;;;;4978085;28;20031;-69
2020/12/21 08:38:14;;;;;;;11.00;5.60;;;4.60;99.90;;;;;;4977655;28;20037;-69
2020/12/21 08:40:54;;;;;;;14.43;5.35;;;4.70;99.90;;;;;;4978207;28;20110;-69
2020/12/21 08:43:21;;;;;;;8.60;3.83;;;4.70;99.90;;;;;;4977639;28;20029;-69
2020/12/21 08:45:49;;;;;;;10.75;4.70;;;4.70;99.90;;;;;;4976615;28;20051;-69
2020/12/21 08:48:17;;;;;;;12.88;5.97;;;4.70;99.90;;;;;;4978203;28;20030;-69
2020/12/21 08:50:44;;;;;;;13.23;5.57;;;4.80;99.90;;;;;;4977863;28;20450;-69
2020/12/21 08:53:12;;;;;;;11.25;5.45;;;4.80;99.90;;;;;;4978231;28;20027;-69
2020/12/21 08:55:39;;;;;;;15.70;5.20;;;4.80;99.90;;;;;;4976911;28;20025;-69
2020/12/21 08:58:06;;;;;;;12.63;5.47;;;4.80;99.90;;;;;;4978173;28;20019;-69
2020/12/21 09:00:35;;;;;;;11.93;4.47;;;4.90;99.90;;;;;;4977719;28;20022;-69
2020/12/21 09:03:04;;;;;;;12.35;4.43;;;4.90;99.90;;;;;;4977556;28;20333;-69
2020/12/21 09:05:31;;;;;;;10.15;4.43;;;4.90;99.90;;;;;;4977405;28;20050;-69
2020/12/21 09:07:59;;;;;;;10.07;3.75;;;4.90;99.90;;;;;;4978007;28;20023;-69
2020/12/21 09:10:27;;;;;;;8.00;3.83;;;4.90;99.90;;;;;;4992744;28;20030;-69
2020/12/21 09:12:55;;;;;;;9.57;4.07;;;5.00;99.90;;;;;;4977461;28;20070;-69
2020/12/21 09:15:22;;;;;;;12.10;4.43;;;5.10;99.90;;;;;;4977398;28;20023;-69
2020/12/21 09:17:49;;;;;;;11.10;3.83;;;5.10;99.90;;;;;;4976970;28;20023;-69
2020/12/21 09:20:17;;;;;;;10.35;3.88;;;5.20;99.90;;;;;;4976424;28;20085;-69
2020/12/21 09:22:45;;;;;;;12.15;5.13;;;5.30;99.90;;;;;;4977389;28;20090;-69
2020/12/21 09:25:13;;;;;;;13.50;3.15;;;5.30;99.90;;;;;;4977567;28;20031;-69
2020/12/21 09:27:41;;;;;;;8.70;3.60;;;5.40;99.90;;;;;;4977850;28;20019;-69
2020/12/21 09:30:08;;;;;;;8.20;3.25;;;5.50;99.90;;;;;;4977440;28;20038;-69
2020/12/21 09:32:36;;;;;;;10.77;3.47;;;5.60;99.90;;;;;;4977811;28;20078;-69
2020/12/21 09:35:05;;;;;;;5.70;2.22;;;5.70;99.90;;;;;;4977310;28;20047;-69
2020/12/21 09:37:33;;;;;;;7.43;3.10;;;5.80;99.90;;;;;;4977291;28;20423;-69
2020/12/21 09:40:01;;;;;;;8.00;2.30;;;6.00;99.90;;;;;;4992537;28;20078;-69
2020/12/21 09:42:29;;;;;;;7.90;3.13;;;6.10;99.90;;;;;;4977433;28;20350;-68
2020/12/21 09:44:57;;;;;;;9.00;2.83;;;6.20;99.90;;;;;;4977054;28;20047;-69
2020/12/21 09:47:24;;;;;;;10.05;2.40;;;6.20;99.90;;;;;;4976258;28;20070;-69
2020/12/21 09:49:51;;;;;;;7.55;2.20;;;6.30;99.90;;;;;;4978888;28;20027;-69
2020/12/21 09:52:19;;;;;;;6.22;2.00;;;6.40;99.90;;;;;;4979941;28;20360;-69
2020/12/21 09:54:46;;;;;;;5.35;2.30;;;6.40;99.90;;;;;;4981106;28;20019;-69
2020/12/21 09:57:13;;;;;;;6.25;2.22;;;6.50;99.90;;;;;;4980571;28;20102;-69
2020/12/21 09:59:41;;;;;;;5.57;2.90;;;6.50;99.90;;;;;;4995668;28;20038;-69
2020/12/21 10:02:09;;;;;;;8.32;3.08;;;6.60;99.90;;;;;;4980454;28;20096;-69
2020/12/21 10:04:36;;;;;;;5.53;2.60;;;6.60;99.90;;;;;;4980757;28;20026;-69
2020/12/21 10:07:04;;;;;;;10.30;2.83;;;6.60;99.90;;;;;;4980016;28;20031;-69
2020/12/21 10:09:32;;;;;;;6.72;2.42;;;6.60;99.90;;;;;;4980361;28;20030;-69
2020/12/21 10:11:59;;;;;;;8.95;2.80;;;6.60;99.90;;;;;;4980319;28;20080;-69
2020/12/21 10:14:27;;;;;;;7.95;3.22;;;6.60;99.90;;;;;;4980121;28;20034;-69
2020/12/21 10:16:55;;;;;;;9.80;3.03;;;6.70;99.90;;;;;;4980329;28;20049;-69
2020/12/21 10:19:22;;;;;;;7.60;2.55;;;6.70;99.90;;;;;;4980653;28;20019;-69
2020/12/21 10:21:50;;;;;;;11.35;2.58;;;6.70;99.90;;;;;;4980665;28;20059;-69
2020/12/21 10:24:18;;;;;;;6.65;2.80;;;6.70;99.90;;;;;;4980012;28;20023;-69
2020/12/21 10:26:45;;;;;;;7.07;2.28;;;6.60;99.90;;;;;;4980138;28;20019;-69
2020/12/21 10:29:13;;;;;;;5.13;2.22;;;6.60;99.90;;;;;;4980414;28;20050;-69
2020/12/21 10:31:42;;;;;;;6.30;2.40;;;6.60;99.90;;;;;;4979917;28;20026;-69
2020/12/21 10:34:09;;;;;;;11.38;3.78;;;6.70;99.90;;;;;;4980463;28;20033;-69
2020/12/21 10:36:38;;;;;;;10.75;2.20;;;6.70;99.90;;;;;;4980585;28;20086;-69
2020/12/21 10:39:06;;;;;;;6.57;2.22;;;6.70;99.90;;;;;;4979755;28;20034;-69
2020/12/21 10:41:35;;;;;;;6.13;2.03;;;6.70;99.90;;;;;;4979837;28;20027;-69
2020/12/21 10:44:03;;;;;;;7.68;2.20;;;6.70;99.90;;;;;;4979823;28;20022;-69
2020/12/21 10:46:30;;;;;;;5.05;2.05;;;6.70;99.90;;;;;;4980399;28;20098;-69
2020/12/21 10:49:03;;;;;;;5.53;2.50;;;6.70;99.90;;;;;;4978465;28;20026;-69
2020/12/21 10:51:33;;;;;;;4.88;1.95;;;6.70;99.90;;;;;;4979497;28;20447;-70
2020/12/21 10:54:02;;;;;;;7.30;2.05;;;6.70;99.90;;;;;;4994603;28;20035;-68
2020/12/21 10:56:29;;;;;;;10.32;2.65;;;6.60;99.90;;;;;;4979683;28;20034;-67
2020/12/21 10:58:57;;;;;;;11.32;2.10;;;6.60;99.90;;;;;;4979200;28;20323;-69
2020/12/21 11:01:24;;;;;;;6.13;2.30;;;6.60;99.90;;;;;;4993555;28;20454;-66
2020/12/21 11:03:52;;;;;;;8.00;2.80;;;6.60;99.90;;;;;;4979245;28;20035;-67
2020/12/21 11:06:27;;;;;;;5.13;1.80;;;6.60;99.90;;;;;;4979129;28;20436;-66
2020/12/21 11:08:54;;;;;;;5.55;1.83;;;6.60;99.90;;;;;;4979521;28;20031;-68
2020/12/21 11:11:27;;;;;;;9.95;2.38;;;6.70;99.90;;;;;;4978837;28;20023;-68
2020/12/21 11:13:55;;;;;;;3.03;1.30;;;6.70;99.90;;;;;;4979165;28;20034;-69
2020/12/21 11:16:26;;;;;;;13.23;4.15;;;6.80;99.90;;;;;;4979088;28;20363;-69
2020/12/21 11:18:54;;;;;;;8.73;2.90;;;6.90;99.90;;;;;;4979660;28;20023;-69
2020/12/21 11:21:22;;;;;;;23.55;7.35;;;6.90;99.90;;;;;;4979028;28;20023;-69
2020/12/21 11:23:49;;;;;;;24.90;8.55;;;7.00;99.90;;;;;;4994257;28;20343;-69
2020/12/21 11:26:19;;;;;;;20.92;7.38;;;7.00;99.90;;;;;;4978936;28;20481;-69
2020/12/21 11:28:47;;;;;;;7.78;1.98;;;7.00;99.90;;;;;;4977923;28;20069;-69
2020/12/21 11:31:18;;;;;;;6.40;2.25;;;7.10;99.90;;;;;;4993975;28;20106;-69
2020/12/21 11:33:45;;;;;;;4.47;1.70;;;7.10;99.90;;;;;;4978969;28;20117;-69
2020/12/21 11:36:13;;;;;;;5.68;2.47;;;7.10;99.90;;;;;;4978798;28;20029;-69
2020/12/21 11:38:41;;;;;;;5.32;2.20;;;7.20;99.90;;;;;;4993862;28;20027;-69
2020/12/21 11:41:09;;;;;;;10.00;2.35;;;7.20;99.90;;;;;;4978992;28;20110;-69
2020/12/21 11:43:37;;;;;;;13.60;2.92;;;7.20;99.90;;;;;;4979183;28;20033;-69
2020/12/21 11:46:06;;;;;;;9.07;2.40;;;7.30;99.90;;;;;;4978476;28;20427;-69
2020/12/21 11:48:34;;;;;;;5.32;2.47;;;7.30;99.90;;;;;;4978538;28;20392;-69
2020/12/21 11:51:02;;;;;;;7.05;3.20;;;7.30;99.90;;;;;;4978808;28;20300;-69
2020/12/21 11:53:29;;;;;;;5.70;2.22;;;7.40;99.90;;;;;;4979099;28;20023;-69
2020/12/21 11:55:57;;;;;;;7.10;2.47;;;7.40;99.90;;;;;;4977958;28;20019;-69
2020/12/21 11:58:24;;;;;;;6.32;3.03;;;7.50;99.90;;;;;;4993492;28;20031;-69
2020/12/21 12:00:52;;;;;;;5.15;2.97;;;7.50;99.90;;;;;;4978350;28;20023;-69
2020/12/21 12:03:19;;;;;;;11.40;3.30;;;7.50;99.90;;;;;;4977975;28;20027;-69
2020/12/21 12:05:47;;;;;;;7.35;2.50;;;7.60;99.90;;;;;;4977783;28;20178;-69
2020/12/21 12:08:14;;;;;;;4.93;2.67;;;7.60;99.90;;;;;;4978252;28;20023;-67
2020/12/21 12:10:42;;;;;;;4.55;2.38;;;7.70;99.90;;;;;;4978509;28;20019;-67
2020/12/21 12:13:10;;;;;;;13.20;2.90;;;7.70;99.90;;;;;;4978616;28;20019;-67
2020/12/21 12:15:40;;;;;;;9.57;2.58;;;7.70;99.90;;;;;;4977994;28;20316;-67
2020/12/21 12:18:08;;;;;;;8.90;3.00;;;7.70;99.90;;;;;;4978064;28;20033;-67
2020/12/21 12:20:36;;;;;;;5.68;2.75;;;7.80;99.90;;;;;;4993206;28;20027;-67
2020/12/21 12:23:03;;;;;;;5.70;2.63;;;7.80;99.90;;;;;;4978019;28;20379;-67
2020/12/21 12:25:30;;;;;;;8.90;2.38;;;7.80;99.90;;;;;;4977923;28;20081;-67
2020/12/21 12:27:57;;;;;;;6.88;2.40;;;7.80;99.90;;;;;;4977943;28;20423;-67
2020/12/21 12:30:25;;;;;;;11.25;2.90;;;7.80;99.90;;;;;;4978077;28;20316;-67
2020/12/21 12:32:53;;;;;;;4.80;2.20;;;7.80;99.90;;;;;;4977888;28;20110;-67
2020/12/21 12:35:20;;;;;;;7.32;2.90;;;7.80;99.90;;;;;;4978537;28;20034;-67
2020/12/21 12:37:48;;;;;;;12.25;3.00;;;7.90;99.90;;;;;;4993026;28;20030;-67
2020/12/21 12:40:15;;;;;;;5.90;2.55;;;7.90;99.90;;;;;;4977818;28;20069;-67
2020/12/21 12:42:45;;;;;;;5.78;2.45;;;7.90;99.90;;;;;;4978077;28;20093;-67
2020/12/21 12:45:12;;;;;;;8.40;3.28;;;7.90;99.90;;;;;;4977559;28;20078;-67
2020/12/21 12:47:40;;;;;;;8.45;3.05;;;8.00;99.90;;;;;;4993004;28;20122;-67
2020/12/21 12:50:08;;;;;;;6.35;2.53;;;8.00;99.90;;;;;;4978197;28;20018;-67
2020/12/21 12:52:37;;;;;;;9.90;3.13;;;8.00;99.90;;;;;;4977940;28;20031;-67
2020/12/21 12:55:04;;;;;;;4.22;2.15;;;8.00;99.90;;;;;;4977627;28;20035;-67